LUKK/KIV METAR and TAF weather

Enter ICAO airport designator
Station Type Date Time Source
LUKK METAR 2019/12/08 17:00 UTC NOAA

LUKK 081700Z 26007KT CAVOK 04/M00 Q1017 R08/CLRD// NOSIG


Station Type Date Time Source
LUKK Decoded METAR 2019/12/08 17:00 UTC NOAA

Chisinau International Airport, Moldova (LUKK) 46-55-40N 028-55-51E
Dec 08, 2019 - 12:00 PM EST / 2019.12.08 1700 UTC
Wind: from the W (260 degrees) at 8 MPH (7 KT):0
Visibility: greater than 7 mile(s):0
Temperature: 39 F (4 C)
Dew Point: 32 F (0 C)
Relative Humidity: 75%
Pressure (altimeter): 30.03 in. Hg (1017 hPa)
ob: LUKK 081700Z 26007KT CAVOK 04/M00 Q1017 R08/CLRD// NOSIG
cycle: 17

Station Type Date Time Source
LUKK TAF 2019/12/08 12:21 UTC NOAA

TAF TAF LUKK 081120Z 0812/0912 VRB04KT CAVOK
BECMG 0820/0822 19008KT
TEMPO 0900/0906 2800 BR

Example: see airport list